메인 페이지
METAR-TAF:

METAR-TAF

공항 :

Cedar City, 유타, 미국

위도: 37-42-24N, 경도: 113-05-48W, 고도: 1715m

현재 날씨관측

예보는 1 시간 6분 전, 15:53시(UTC)에 발표되었습니다.
서북서4kt
온도 23°C
습도 50%
기압 1027 hPa
시정: 16.1km
맑음

METAR: KCDC 171553Z AUTO 30004KT 10SM CLR 23/12 A3032 RMK AO2 SLP188 T02330117

시각: 10:59 (16:59 UTC)

예보

예보는 5 시간 39분 전, 11:20시(UTC)에 발표되었습니다.
예보 대상 시간: 17일 12시부터 18일 12시까지 (UTC)
여러 방향의 바람 4kt
시정: 10km
고도 12000ft 상공 구름 보통
17일 1900시부터 (UTC)
남서9kt
시정: 10km
고도 8000ft 상공 구름 보통, 적란운.
고도 11000ft 상공 구름 많음
시계 내 뇌우
18일 0100시부터 (UTC)
7kt
시정: 10km
고도 9000ft 상공 구름 보통
고도 12000ft 상공 구름 많음
시계 내 소나기
18일 0300시부터 (UTC)
여러 방향의 바람 5kt
시정: 10km
고도 12000ft 상공 구름 조금

TAF: KCDC 171120Z 1712/1812 VRB04KT P6SM SCT120 FM171900 23009KT P6SM VCTS SCT080CB BKN110 FM180100 18007KT P6SM VCSH SCT090 BKN120 FM180300 VRB05KT P6SM FEW120

4,000개 이상의 공항 관측 자료 및 예보 (METAR 및 TAF 보고).

지도상에서 검색 가능한 기상관측소가 노란 점과 빨간 점으로 표시되어 있습니다.

기상관측소 명을 보려면 표시 위로 마우스를 이동하세요.

날씨 관측과 예보를 보려면 클릭하세요.

지도 변경 : 확대하려면 엑스 표시가 있는 녹색 버튼, 축소하려면 빼기 표시가 있는 녹색 버튼, 다음 페이지의 지도를 보려면 녹색 화살표를 클릭하세요.


METAR-TAF: